createdAt,value
2016-09-19T14:31:38.786Z,22.59
2016-09-19T14:32:38.484Z,22.54
2016-09-19T14:33:38.418Z,22.55
2016-09-19T14:34:39.328Z,22.51
2016-09-19T14:35:38.319Z,22.54
2016-09-19T14:36:39.622Z,22.53
2016-09-19T14:37:38.694Z,22.57
2016-09-19T14:38:39.524Z,22.57
2016-09-19T14:39:38.073Z,22.55
2016-09-19T14:40:39.411Z,22.6
2016-09-19T14:41:38.479Z,22.62
2016-09-19T14:42:37.873Z,22.63
2016-09-19T14:43:38.043Z,22.54
2016-09-19T14:44:37.967Z,22.59
2016-09-19T14:45:38.213Z,22.59
2016-09-19T14:46:37.661Z,22.62
2016-09-19T14:47:39.096Z,22.59
2016-09-19T14:48:37.523Z,22.55
2016-09-19T14:49:37.456Z,22.51
2016-09-19T14:50:37.731Z,22.55
2016-09-19T14:51:37.654Z,22.55
2016-09-19T14:52:37.605Z,22.65
2016-09-19T14:53:37.435Z,22.57
2016-09-19T14:54:37.484Z,22.51
2016-09-19T14:55:37.104Z,22.5
2016-09-19T14:56:37.062Z,22.48
2016-09-19T14:57:36.985Z,22.53
2016-09-19T14:58:36.952Z,22.41
2016-09-19T14:59:36.862Z,22.47
2016-09-19T15:00:36.793Z,22.57
2016-09-19T15:01:37.490Z,22.53
2016-09-19T15:02:39.935Z,22.53
2016-09-19T15:03:36.616Z,22.62
2016-09-19T15:04:36.563Z,22.48
2016-09-19T15:05:36.511Z,22.36
2016-09-19T15:06:36.452Z,22.41
2016-09-19T15:07:36.381Z,22.36
2016-09-19T15:08:36.337Z,22.47
2016-09-19T15:09:36.742Z,22.38
2016-09-19T15:10:37.165Z,22.36
2016-09-19T15:11:36.363Z,22.45
2016-09-19T15:12:36.518Z,22.36
2016-09-19T15:13:37.276Z,22.36
2016-09-19T15:14:36.157Z,22.38
2016-09-19T15:15:35.907Z,22.36
2016-09-19T15:16:36.066Z,22.38
2016-09-19T15:17:36.310Z,22.41
2016-09-19T15:18:36.541Z,22.32
2016-09-19T15:19:35.892Z,22.39
2016-09-19T15:20:36.058Z,22.32
2016-09-19T15:21:35.538Z,22.36
2016-09-19T15:22:36.100Z,22.39
2016-09-19T15:23:35.604Z,22.43
2016-09-19T15:24:36.005Z,22.54
2016-09-19T15:25:35.621Z,22.47
2016-09-19T15:26:35.775Z,22.45
2016-09-19T15:27:35.381Z,22.44
2016-09-19T15:28:35.370Z,22.47
2016-09-19T15:29:35.680Z,22.5
2016-09-19T15:30:34.996Z,22.5
2016-09-19T15:31:35.136Z,22.47
2016-09-19T15:32:35.728Z,22.48
2016-09-19T15:33:35.141Z,22.44
2016-09-19T15:34:34.792Z,22.45
2016-09-19T15:35:34.905Z,22.48
2016-09-19T15:36:35.393Z,22.54
2016-09-19T15:37:34.577Z,22.5
2016-09-19T15:38:34.517Z,22.45
2016-09-19T15:39:34.468Z,22.5
2016-09-19T15:40:34.396Z,22.44
2016-09-19T15:41:34.666Z,22.54
2016-09-19T15:42:34.916Z,22.48
2016-09-19T15:43:34.231Z,22.59
2016-09-19T15:44:34.501Z,22.6
2016-09-19T15:45:34.533Z,22.54
2016-09-19T15:46:34.033Z,22.55
2016-09-19T15:47:34.196Z,22.57
2016-09-19T15:48:33.917Z,22.6
2016-09-19T15:49:34.476Z,22.54
2016-09-19T15:50:34.009Z,22.57
2016-09-19T15:51:34.264Z,22.57
2016-09-19T15:52:34.200Z,22.59
2016-09-19T15:53:34.141Z,22.59
2016-09-19T15:54:33.802Z,22.59
2016-09-19T15:55:33.498Z,22.5
2016-09-19T15:56:33.957Z,22.57
2016-09-19T15:57:33.700Z,22.55
2016-09-19T15:58:34.261Z,22.6
2016-09-19T15:59:33.781Z,22.6
2016-09-19T16:00:33.817Z,22.6
2016-09-19T16:01:33.396Z,22.57
2016-09-19T16:02:33.298Z,22.54
2016-09-19T16:03:33.225Z,22.59
2016-09-19T16:04:33.680Z,22.62
2016-09-19T16:05:33.103Z,22.55
2016-09-19T16:06:33.343Z,22.54
2016-09-19T16:07:32.978Z,22.59
2016-09-19T16:08:32.933Z,22.55
2016-09-19T16:09:32.660Z,22.59
2016-09-19T16:10:33.123Z,22.6
2016-09-19T16:11:32.841Z,22.54
2016-09-19T16:12:33.015Z,22.53
2016-09-19T16:13:32.417Z,22.55
2016-09-19T16:14:33.181Z,22.51
2016-09-19T16:15:32.606Z,22.6
2016-09-19T16:16:32.563Z,22.65
2016-09-19T16:17:33.201Z,22.6
2016-09-19T16:18:32.580Z,22.59
2016-09-19T16:19:33.458Z,22.62
2016-09-19T16:20:31.998Z,22.54
2016-09-19T16:21:32.256Z,22.57
2016-09-19T16:22:31.887Z,22.6
2016-09-19T16:23:32.347Z,22.6
2016-09-19T16:24:32.949Z,22.51
2016-09-19T16:25:31.922Z,22.62
2016-09-19T16:26:31.888Z,22.63
2016-09-19T16:27:32.088Z,22.59
2016-09-19T16:28:31.520Z,22.66
2016-09-19T16:29:31.488Z,22.59
2016-09-19T16:30:31.392Z,22.63
2016-09-19T16:31:31.657Z,22.59
2016-09-19T16:32:31.814Z,22.6
2016-09-19T16:33:31.208Z,22.6
2016-09-19T16:34:31.734Z,22.68
2016-09-19T16:35:31.163Z,22.57
2016-09-19T16:36:31.354Z,22.62
2016-09-19T16:37:30.989Z,22.66
2016-09-19T16:38:31.433Z,22.62
2016-09-19T16:39:30.850Z,22.62
2016-09-19T16:40:31.222Z,22.65
2016-09-19T16:41:30.742Z,22.55
2016-09-19T16:42:31.076Z,22.62
2016-09-19T16:43:31.126Z,22.66
2016-09-19T16:44:30.779Z,22.5
2016-09-19T16:45:30.502Z,22.62
2016-09-19T16:46:30.702Z,22.66
2016-09-19T16:47:30.382Z,22.66
2016-09-19T16:48:30.312Z,22.65
2016-09-19T16:49:30.263Z,22.59
2016-09-19T16:50:30.901Z,22.55
2016-09-19T16:51:30.540Z,22.63
2016-09-19T16:52:30.082Z,22.55
2016-09-19T16:53:30.225Z,22.66
2016-09-19T16:54:30.165Z,22.73
2016-09-19T16:55:30.139Z,22.68
2016-09-19T16:56:30.466Z,22.62
2016-09-19T16:57:30.023Z,22.66
2016-09-19T16:58:30.119Z,22.62
2016-09-19T16:59:29.887Z,22.62
2016-09-19T17:00:30.110Z,22.69
2016-09-19T17:01:29.853Z,22.6
